Terminal Aerodrome Forecast
Issued by NWS Bismarck, ND

Home | Current Version | Previous Version | Graphics & Text | Print | Product List | Glossary On
Versions: 1 2 3 4 5 6 7 8 9 10 11 12 13 14 15 16 17 18 19 20 21 22 23 24 25 26 27 28 29 30 31 32 33 34 35
000
FTUS43 KBIS 231739
TAFISN
TAF
KISN 231739Z 2318/2418 06005KT 3SM BR OVC009
      TEMPO 2318/2321 P6SM NSW OVC010
     FM232100 05005KT P6SM OVC015
     FM240200 04005KT P6SM BKN035
     FM241200 VRB03KT 4SM BR BKN035
     FM241500 17005KT P6SM SCT035=

USA.gov is the U.S. government's official web portal to all federal, state and local government web resources and services.